sensor_id;sensor_type;location;lat;lon;timestamp;P1;durP1;ratioP1;P2;durP2;ratioP2
11039;SDS011;5573;49.592;8.662;2023-07-29T00:00:08;255.55;;;242.55;;
11039;SDS011;5573;49.592;8.662;2023-07-29T00:02:40;245.25;;;232.70;;
11039;SDS011;5573;49.592;8.662;2023-07-29T00:05:08;244.20;;;231.68;;
11039;SDS011;5573;49.592;8.662;2023-07-29T00:07:36;229.85;;;218.13;;
11039;SDS011;5573;49.592;8.662;2023-07-29T00:10:06;260.25;;;247.18;;
11039;SDS011;5573;49.592;8.662;2023-07-29T00:12:34;257.00;;;243.88;;
11039;SDS011;5573;49.592;8.662;2023-07-29T00:15:03;254.57;;;241.57;;
11039;SDS011;5573;49.592;8.662;2023-07-29T00:17:31;267.10;;;253.50;;
11039;SDS011;5573;49.592;8.662;2023-07-29T00:19:59;270.63;;;257.05;;
11039;SDS011;5573;49.592;8.662;2023-07-29T00:22:27;257.05;;;243.77;;
11039;SDS011;5573;49.592;8.662;2023-07-29T00:24:54;256.88;;;243.88;;
11039;SDS011;5573;49.592;8.662;2023-07-29T00:27:25;247.27;;;234.50;;
11039;SDS011;5573;49.592;8.662;2023-07-29T00:29:54;258.00;;;244.93;;
11039;SDS011;5573;49.592;8.662;2023-07-29T00:32:21;268.95;;;255.02;;
11039;SDS011;5573;49.592;8.662;2023-07-29T00:34:49;264.88;;;251.23;;
11039;SDS011;5573;49.592;8.662;2023-07-29T00:37:17;250.65;;;237.45;;
11039;SDS011;5573;49.592;8.662;2023-07-29T00:39:45;270.55;;;256.75;;
11039;SDS011;5573;49.592;8.662;2023-07-29T00:42:13;265.60;;;252.15;;
11039;SDS011;5573;49.592;8.662;2023-07-29T00:44:42;260.70;;;247.30;;
11039;SDS011;5573;49.592;8.662;2023-07-29T00:47:10;256.30;;;243.02;;
11039;SDS011;5573;49.592;8.662;2023-07-29T00:49:40;279.23;;;264.70;;
11039;SDS011;5573;49.592;8.662;2023-07-29T00:52:09;246.48;;;233.77;;
11039;SDS011;5573;49.592;8.662;2023-07-29T00:54:39;256.15;;;243.13;;
11039;SDS011;5573;49.592;8.662;2023-07-29T00:57:06;262.10;;;248.95;;
11039;SDS011;5573;49.592;8.662;2023-07-29T00:59:36;249.57;;;237.00;;
11039;SDS011;5573;49.592;8.662;2023-07-29T01:02:06;254.13;;;241.07;;
11039;SDS011;5573;49.592;8.662;2023-07-29T01:04:34;259.45;;;246.25;;
11039;SDS011;5573;49.592;8.662;2023-07-29T01:07:03;251.57;;;238.50;;
11039;SDS011;5573;49.592;8.662;2023-07-29T01:09:40;257.27;;;244.20;;
11039;SDS011;5573;49.592;8.662;2023-07-29T01:12:17;251.65;;;238.68;;
11039;SDS011;5573;49.592;8.662;2023-07-29T01:14:51;249.48;;;236.57;;
11039;SDS011;5573;49.592;8.662;2023-07-29T01:17:29;247.75;;;235.10;;
11039;SDS011;5573;49.592;8.662;2023-07-29T01:20:01;245.80;;;233.32;;
11039;SDS011;5573;49.592;8.662;2023-07-29T01:22:34;237.20;;;225.07;;
11039;SDS011;5573;49.592;8.662;2023-07-29T01:25:05;249.40;;;236.48;;
11039;SDS011;5573;49.592;8.662;2023-07-29T01:27:33;237.55;;;225.25;;
11039;SDS011;5573;49.592;8.662;2023-07-29T01:30:01;249.73;;;237.07;;
11039;SDS011;5573;49.592;8.662;2023-07-29T01:32:32;241.30;;;229.20;;
11039;SDS011;5573;49.592;8.662;2023-07-29T01:35:07;261.60;;;248.32;;
11039;SDS011;5573;49.592;8.662;2023-07-29T01:37:43;262.85;;;249.43;;
11039;SDS011;5573;49.592;8.662;2023-07-29T01:40:16;244.85;;;232.40;;
11039;SDS011;5573;49.592;8.662;2023-07-29T01:42:46;242.18;;;229.90;;
11039;SDS011;5573;49.592;8.662;2023-07-29T01:45:13;249.02;;;236.52;;
11039;SDS011;5573;49.592;8.662;2023-07-29T01:47:41;256.60;;;243.23;;
11039;SDS011;5573;49.592;8.662;2023-07-29T01:50:10;268.33;;;254.60;;
11039;SDS011;5573;49.592;8.662;2023-07-29T01:52:38;246.05;;;233.40;;
11039;SDS011;5573;49.592;8.662;2023-07-29T01:55:06;250.02;;;237.35;;
11039;SDS011;5573;49.592;8.662;2023-07-29T01:57:36;246.20;;;233.55;;
11039;SDS011;5573;49.592;8.662;2023-07-29T02:00:04;263.95;;;250.35;;
11039;SDS011;5573;49.592;8.662;2023-07-29T02:02:39;257.02;;;243.77;;
11039;SDS011;5573;49.592;8.662;2023-07-29T02:05:13;242.60;;;230.13;;
11039;SDS011;5573;49.592;8.662;2023-07-29T02:07:41;245.82;;;232.98;;
11039;SDS011;5573;49.592;8.662;2023-07-29T02:10:08;248.98;;;236.30;;
11039;SDS011;5573;49.592;8.662;2023-07-29T02:12:39;237.88;;;225.48;;
11039;SDS011;5573;49.592;8.662;2023-07-29T02:15:07;245.43;;;232.85;;
11039;SDS011;5573;49.592;8.662;2023-07-29T02:17:36;239.50;;;227.32;;
11039;SDS011;5573;49.592;8.662;2023-07-29T02:20:04;250.23;;;237.40;;
11039;SDS011;5573;49.592;8.662;2023-07-29T02:22:33;236.05;;;223.93;;
11039;SDS011;5573;49.592;8.662;2023-07-29T02:25:00;238.93;;;226.40;;
11039;SDS011;5573;49.592;8.662;2023-07-29T02:27:29;233.40;;;221.27;;
11039;SDS011;5573;49.592;8.662;2023-07-29T02:29:58;237.75;;;225.48;;
11039;SDS011;5573;49.592;8.662;2023-07-29T02:32:26;246.30;;;233.43;;
11039;SDS011;5573;49.592;8.662;2023-07-29T02:34:54;255.88;;;242.70;;
11039;SDS011;5573;49.592;8.662;2023-07-29T02:37:22;239.63;;;227.40;;
11039;SDS011;5573;49.592;8.662;2023-07-29T02:39:51;249.43;;;236.55;;
11039;SDS011;5573;49.592;8.662;2023-07-29T02:42:18;245.48;;;232.90;;
11039;SDS011;5573;49.592;8.662;2023-07-29T02:44:46;246.23;;;233.43;;
11039;SDS011;5573;49.592;8.662;2023-07-29T02:47:16;248.40;;;235.73;;
11039;SDS011;5573;49.592;8.662;2023-07-29T02:49:44;243.23;;;230.63;;
11039;SDS011;5573;49.592;8.662;2023-07-29T02:52:12;230.05;;;218.20;;
11039;SDS011;5573;49.592;8.662;2023-07-29T02:54:39;245.02;;;232.45;;
11039;SDS011;5573;49.592;8.662;2023-07-29T02:57:08;229.45;;;217.63;;
11039;SDS011;5573;49.592;8.662;2023-07-29T02:59:36;248.80;;;236.05;;
11039;SDS011;5573;49.592;8.662;2023-07-29T03:02:03;264.63;;;250.95;;
11039;SDS011;5573;49.592;8.662;2023-07-29T03:04:33;245.02;;;232.27;;
11039;SDS011;5573;49.592;8.662;2023-07-29T03:07:01;245.80;;;233.23;;
11039;SDS011;5573;49.592;8.662;2023-07-29T03:09:28;249.57;;;236.70;;
11039;SDS011;5573;49.592;8.662;2023-07-29T03:11:56;256.15;;;243.05;;
11039;SDS011;5573;49.592;8.662;2023-07-29T03:14:25;266.67;;;253.07;;
11039;SDS011;5573;49.592;8.662;2023-07-29T03:16:53;247.45;;;234.85;;
11039;SDS011;5573;49.592;8.662;2023-07-29T03:19:21;243.95;;;231.45;;
11039;SDS011;5573;49.592;8.662;2023-07-29T03:21:51;246.85;;;234.25;;
11039;SDS011;5573;49.592;8.662;2023-07-29T03:24:19;235.27;;;223.20;;
11039;SDS011;5573;49.592;8.662;2023-07-29T03:26:47;240.65;;;228.27;;
11039;SDS011;5573;49.592;8.662;2023-07-29T03:29:14;254.55;;;241.45;;
11039;SDS011;5573;49.592;8.662;2023-07-29T03:31:42;254.88;;;241.80;;
11039;SDS011;5573;49.592;8.662;2023-07-29T03:34:10;256.05;;;242.85;;
11039;SDS011;5573;49.592;8.662;2023-07-29T03:36:42;249.30;;;236.63;;
11039;SDS011;5573;49.592;8.662;2023-07-29T03:39:13;248.98;;;236.02;;
11039;SDS011;5573;49.592;8.662;2023-07-29T03:41:41;267.77;;;254.05;;
11039;SDS011;5573;49.592;8.662;2023-07-29T03:44:09;258.00;;;244.73;;
11039;SDS011;5573;49.592;8.662;2023-07-29T03:46:37;241.75;;;229.23;;
11039;SDS011;5573;49.592;8.662;2023-07-29T03:49:07;254.38;;;241.35;;
11039;SDS011;5573;49.592;8.662;2023-07-29T03:51:35;247.68;;;234.88;;
11039;SDS011;5573;49.592;8.662;2023-07-29T03:54:04;245.05;;;232.43;;
11039;SDS011;5573;49.592;8.662;2023-07-29T03:56:33;257.40;;;244.00;;
11039;SDS011;5573;49.592;8.662;2023-07-29T03:59:03;258.58;;;245.35;;
11039;SDS011;5573;49.592;8.662;2023-07-29T04:01:32;238.85;;;226.43;;
11039;SDS011;5573;49.592;8.662;2023-07-29T04:04:00;240.88;;;228.50;;
11039;SDS011;5573;49.592;8.662;2023-07-29T04:06:28;241.38;;;228.95;;
11039;SDS011;5573;49.592;8.662;2023-07-29T04:08:56;233.68;;;221.68;;
11039;SDS011;5573;49.592;8.662;2023-07-29T04:11:24;243.95;;;231.55;;
11039;SDS011;5573;49.592;8.662;2023-07-29T04:13:53;232.82;;;220.95;;
11039;SDS011;5573;49.592;8.662;2023-07-29T04:16:22;248.10;;;235.60;;
11039;SDS011;5573;49.592;8.662;2023-07-29T04:18:50;236.30;;;224.05;;
11039;SDS011;5573;49.592;8.662;2023-07-29T04:21:18;251.40;;;238.52;;
11039;SDS011;5573;49.592;8.662;2023-07-29T04:23:45;237.40;;;225.23;;
11039;SDS011;5573;49.592;8.662;2023-07-29T04:26:14;249.68;;;237.13;;
11039;SDS011;5573;49.592;8.662;2023-07-29T04:28:41;245.05;;;232.65;;
11039;SDS011;5573;49.592;8.662;2023-07-29T04:31:10;247.65;;;235.13;;
11039;SDS011;5573;49.592;8.662;2023-07-29T04:33:39;234.45;;;222.27;;
11039;SDS011;5573;49.592;8.662;2023-07-29T04:36:06;257.67;;;244.50;;
11039;SDS011;5573;49.592;8.662;2023-07-29T04:38:36;238.40;;;226.18;;
11039;SDS011;5573;49.592;8.662;2023-07-29T04:41:05;229.43;;;217.82;;
11039;SDS011;5573;49.592;8.662;2023-07-29T04:43:33;250.57;;;237.95;;
11039;SDS011;5573;49.592;8.662;2023-07-29T04:46:01;249.75;;;237.27;;
11039;SDS011;5573;49.592;8.662;2023-07-29T04:48:30;256.67;;;243.77;;
11039;SDS011;5573;49.592;8.662;2023-07-29T04:50:58;250.35;;;237.68;;
11039;SDS011;5573;49.592;8.662;2023-07-29T04:53:26;235.30;;;223.40;;
11039;SDS011;5573;49.592;8.662;2023-07-29T04:55:54;250.88;;;238.32;;
11039;SDS011;5573;49.592;8.662;2023-07-29T04:58:22;243.10;;;230.75;;
11039;SDS011;5573;49.592;8.662;2023-07-29T05:00:50;244.88;;;232.60;;
11039;SDS011;5573;49.592;8.662;2023-07-29T05:03:17;238.27;;;226.23;;
11039;SDS011;5573;49.592;8.662;2023-07-29T05:05:46;247.45;;;234.88;;
11039;SDS011;5573;49.592;8.662;2023-07-29T05:08:17;241.10;;;229.00;;
11039;SDS011;5573;49.592;8.662;2023-07-29T05:10:48;253.07;;;240.07;;
11039;SDS011;5573;49.592;8.662;2023-07-29T05:13:16;231.10;;;219.27;;
11039;SDS011;5573;49.592;8.662;2023-07-29T05:15:44;235.57;;;223.48;;
11039;SDS011;5573;49.592;8.662;2023-07-29T05:18:12;232.73;;;220.98;;
11039;SDS011;5573;49.592;8.662;2023-07-29T05:20:40;240.05;;;227.70;;
11039;SDS011;5573;49.592;8.662;2023-07-29T05:23:10;249.68;;;236.77;;
11039;SDS011;5573;49.592;8.662;2023-07-29T05:25:38;234.32;;;222.25;;
11039;SDS011;5573;49.592;8.662;2023-07-29T05:28:06;249.98;;;237.32;;
11039;SDS011;5573;49.592;8.662;2023-07-29T05:30:33;246.98;;;234.38;;
11039;SDS011;5573;49.592;8.662;2023-07-29T05:33:05;223.68;;;212.15;;
11039;SDS011;5573;49.592;8.662;2023-07-29T05:35:34;262.48;;;249.02;;
11039;SDS011;5573;49.592;8.662;2023-07-29T05:38:02;240.25;;;227.85;;
11039;SDS011;5573;49.592;8.662;2023-07-29T05:40:33;246.80;;;234.07;;
11039;SDS011;5573;49.592;8.662;2023-07-29T05:43:01;258.38;;;245.02;;
11039;SDS011;5573;49.592;8.662;2023-07-29T05:45:29;247.65;;;234.90;;
11039;SDS011;5573;49.592;8.662;2023-07-29T05:47:57;246.68;;;234.10;;
11039;SDS011;5573;49.592;8.662;2023-07-29T05:50:26;252.27;;;239.30;;
11039;SDS011;5573;49.592;8.662;2023-07-29T05:52:53;256.63;;;243.45;;
11039;SDS011;5573;49.592;8.662;2023-07-29T05:55:22;270.02;;;255.93;;
11039;SDS011;5573;49.592;8.662;2023-07-29T05:57:51;255.88;;;242.70;;
11039;SDS011;5573;49.592;8.662;2023-07-29T06:00:19;243.48;;;231.00;;
11039;SDS011;5573;49.592;8.662;2023-07-29T06:02:47;247.60;;;234.75;;
11039;SDS011;5573;49.592;8.662;2023-07-29T06:05:20;250.88;;;238.05;;
11039;SDS011;5573;49.592;8.662;2023-07-29T06:07:47;265.17;;;251.65;;
11039;SDS011;5573;49.592;8.662;2023-07-29T06:10:15;260.00;;;246.57;;
11039;SDS011;5573;49.592;8.662;2023-07-29T06:12:45;246.05;;;233.38;;
11039;SDS011;5573;49.592;8.662;2023-07-29T06:15:15;249.98;;;237.07;;
11039;SDS011;5573;49.592;8.662;2023-07-29T06:17:43;261.40;;;247.98;;
11039;SDS011;5573;49.592;8.662;2023-07-29T06:20:11;242.20;;;229.95;;
11039;SDS011;5573;49.592;8.662;2023-07-29T06:22:38;262.05;;;248.77;;
11039;SDS011;5573;49.592;8.662;2023-07-29T06:25:07;256.77;;;243.82;;
11039;SDS011;5573;49.592;8.662;2023-07-29T06:27:35;267.85;;;254.20;;
11039;SDS011;5573;49.592;8.662;2023-07-29T06:30:03;254.00;;;240.82;;
11039;SDS011;5573;49.592;8.662;2023-07-29T06:32:33;251.10;;;238.05;;
11039;SDS011;5573;49.592;8.662;2023-07-29T06:35:01;261.90;;;248.43;;
11039;SDS011;5573;49.592;8.662;2023-07-29T06:37:29;247.77;;;235.05;;
11039;SDS011;5573;49.592;8.662;2023-07-29T06:39:57;255.98;;;242.93;;
11039;SDS011;5573;49.592;8.662;2023-07-29T06:42:25;244.93;;;232.23;;
11039;SDS011;5573;49.592;8.662;2023-07-29T06:44:53;242.88;;;230.50;;
11039;SDS011;5573;49.592;8.662;2023-07-29T06:47:20;250.90;;;238.18;;
11039;SDS011;5573;49.592;8.662;2023-07-29T06:49:50;247.82;;;235.00;;
11039;SDS011;5573;49.592;8.662;2023-07-29T06:52:17;260.85;;;247.43;;
11039;SDS011;5573;49.592;8.662;2023-07-29T06:54:45;234.30;;;222.23;;
11039;SDS011;5573;49.592;8.662;2023-07-29T06:57:13;252.43;;;239.65;;
11039;SDS011;5573;49.592;8.662;2023-07-29T06:59:41;244.45;;;231.88;;
11039;SDS011;5573;49.592;8.662;2023-07-29T07:02:08;235.98;;;224.10;;
11039;SDS011;5573;49.592;8.662;2023-07-29T07:04:36;246.25;;;233.70;;
11039;SDS011;5573;49.592;8.662;2023-07-29T07:07:05;240.38;;;227.95;;
11039;SDS011;5573;49.592;8.662;2023-07-29T07:09:33;250.95;;;238.13;;
11039;SDS011;5573;49.592;8.662;2023-07-29T07:12:01;266.25;;;253.00;;
11039;SDS011;5573;49.592;8.662;2023-07-29T07:14:29;254.60;;;241.32;;
11039;SDS011;5573;49.592;8.662;2023-07-29T07:16:57;237.75;;;225.55;;
11039;SDS011;5573;49.592;8.662;2023-07-29T07:19:25;247.82;;;235.18;;
11039;SDS011;5573;49.592;8.662;2023-07-29T07:21:53;248.00;;;235.13;;
11039;SDS011;5573;49.592;8.662;2023-07-29T07:24:22;258.15;;;244.95;;
11039;SDS011;5573;49.592;8.662;2023-07-29T07:26:49;265.60;;;252.07;;
11039;SDS011;5573;49.592;8.662;2023-07-29T07:29:17;251.57;;;238.90;;
11039;SDS011;5573;49.592;8.662;2023-07-29T07:31:49;250.52;;;237.80;;
11039;SDS011;5573;49.592;8.662;2023-07-29T07:34:18;251.20;;;238.60;;
11039;SDS011;5573;49.592;8.662;2023-07-29T07:36:46;245.00;;;232.52;;
11039;SDS011;5573;49.592;8.662;2023-07-29T07:39:15;254.38;;;241.43;;
11039;SDS011;5573;49.592;8.662;2023-07-29T07:41:44;248.98;;;236.18;;
11039;SDS011;5573;49.592;8.662;2023-07-29T07:44:12;250.68;;;237.95;;
11039;SDS011;5573;49.592;8.662;2023-07-29T07:46:44;248.05;;;235.35;;
11039;SDS011;5573;49.592;8.662;2023-07-29T07:49:12;241.13;;;228.93;;
11039;SDS011;5573;49.592;8.662;2023-07-29T07:51:40;240.77;;;228.45;;
11039;SDS011;5573;49.592;8.662;2023-07-29T07:54:08;249.25;;;236.48;;
11039;SDS011;5573;49.592;8.662;2023-07-29T07:56:35;247.32;;;234.82;;
11039;SDS011;5573;49.592;8.662;2023-07-29T07:59:05;238.77;;;226.65;;
11039;SDS011;5573;49.592;8.662;2023-07-29T08:01:33;267.48;;;253.73;;
11039;SDS011;5573;49.592;8.662;2023-07-29T08:04:01;266.75;;;253.27;;
11039;SDS011;5573;49.592;8.662;2023-07-29T08:06:29;233.45;;;221.48;;
11039;SDS011;5573;49.592;8.662;2023-07-29T08:08:57;254.45;;;241.57;;
11039;SDS011;5573;49.592;8.662;2023-07-29T08:11:25;239.32;;;227.10;;
11039;SDS011;5573;49.592;8.662;2023-07-29T08:13:53;251.50;;;238.43;;
11039;SDS011;5573;49.592;8.662;2023-07-29T08:16:22;259.45;;;245.90;;
11039;SDS011;5573;49.592;8.662;2023-07-29T08:18:50;268.42;;;254.55;;
11039;SDS011;5573;49.592;8.662;2023-07-29T08:21:18;291.48;;;276.48;;
11039;SDS011;5573;49.592;8.662;2023-07-29T08:23:46;277.27;;;262.88;;
11039;SDS011;5573;49.592;8.662;2023-07-29T08:26:13;280.30;;;265.67;;
11039;SDS011;5573;49.592;8.662;2023-07-29T08:28:41;275.95;;;261.52;;
11039;SDS011;5573;49.592;8.662;2023-07-29T08:31:09;274.75;;;260.63;;
11039;SDS011;5573;49.592;8.662;2023-07-29T08:33:39;260.00;;;246.63;;
11039;SDS011;5573;49.592;8.662;2023-07-29T08:36:06;279.42;;;264.88;;
11039;SDS011;5573;49.592;8.662;2023-07-29T08:38:34;280.13;;;265.45;;
11039;SDS011;5573;49.592;8.662;2023-07-29T08:41:05;281.38;;;266.63;;
11039;SDS011;5573;49.592;8.662;2023-07-29T08:43:38;280.58;;;266.15;;
11039;SDS011;5573;49.592;8.662;2023-07-29T08:46:11;287.00;;;272.17;;
11039;SDS011;5573;49.592;8.662;2023-07-29T08:48:41;282.77;;;268.25;;
11039;SDS011;5573;49.592;8.662;2023-07-29T08:51:10;290.88;;;275.70;;
11039;SDS011;5573;49.592;8.662;2023-07-29T08:53:39;294.95;;;279.25;;
11039;SDS011;5573;49.592;8.662;2023-07-29T08:56:07;285.50;;;270.67;;
11039;SDS011;5573;49.592;8.662;2023-07-29T08:58:35;295.80;;;280.73;;
11039;SDS011;5573;49.592;8.662;2023-07-29T09:01:04;283.83;;;269.20;;
11039;SDS011;5573;49.592;8.662;2023-07-29T09:03:31;285.67;;;271.00;;
11039;SDS011;5573;49.592;8.662;2023-07-29T09:06:01;268.13;;;254.43;;
11039;SDS011;5573;49.592;8.662;2023-07-29T09:08:30;280.42;;;266.20;;
11039;SDS011;5573;49.592;8.662;2023-07-29T09:10:58;267.25;;;253.70;;
11039;SDS011;5573;49.592;8.662;2023-07-29T09:13:26;265.48;;;251.88;;
11039;SDS011;5573;49.592;8.662;2023-07-29T09:15:55;269.70;;;255.80;;
11039;SDS011;5573;49.592;8.662;2023-07-29T09:18:25;267.55;;;253.80;;
11039;SDS011;5573;49.592;8.662;2023-07-29T09:20:54;278.38;;;264.17;;
11039;SDS011;5573;49.592;8.662;2023-07-29T09:23:27;274.38;;;260.25;;
11039;SDS011;5573;49.592;8.662;2023-07-29T09:26:02;257.95;;;244.85;;
11039;SDS011;5573;49.592;8.662;2023-07-29T09:28:32;255.55;;;242.57;;
11039;SDS011;5573;49.592;8.662;2023-07-29T09:31:01;262.70;;;249.52;;
11039;SDS011;5573;49.592;8.662;2023-07-29T09:33:30;264.40;;;251.13;;
11039;SDS011;5573;49.592;8.662;2023-07-29T09:36:02;269.30;;;255.57;;
11039;SDS011;5573;49.592;8.662;2023-07-29T09:38:37;268.60;;;255.13;;
11039;SDS011;5573;49.592;8.662;2023-07-29T09:41:05;262.88;;;249.63;;
11039;SDS011;5573;49.592;8.662;2023-07-29T09:43:34;244.93;;;232.35;;
11039;SDS011;5573;49.592;8.662;2023-07-29T09:46:03;250.23;;;237.40;;
11039;SDS011;5573;49.592;8.662;2023-07-29T09:48:32;274.75;;;260.63;;
11039;SDS011;5573;49.592;8.662;2023-07-29T09:51:04;242.80;;;230.40;;
11039;SDS011;5573;49.592;8.662;2023-07-29T09:53:40;272.73;;;258.95;;
11039;SDS011;5573;49.592;8.662;2023-07-29T09:56:12;271.67;;;257.92;;
11039;SDS011;5573;49.592;8.662;2023-07-29T09:58:41;276.33;;;262.23;;
11039;SDS011;5573;49.592;8.662;2023-07-29T10:01:12;259.70;;;246.40;;
11039;SDS011;5573;49.592;8.662;2023-07-29T10:03:41;264.90;;;251.23;;
11039;SDS011;5573;49.592;8.662;2023-07-29T10:06:10;241.25;;;228.98;;
11039;SDS011;5573;49.592;8.662;2023-07-29T10:08:38;239.32;;;227.20;;
11039;SDS011;5573;49.592;8.662;2023-07-29T10:11:10;230.52;;;218.77;;
11039;SDS011;5573;49.592;8.662;2023-07-29T10:13:38;232.60;;;220.80;;
11039;SDS011;5573;49.592;8.662;2023-07-29T10:16:07;209.50;;;198.68;;
11039;SDS011;5573;49.592;8.662;2023-07-29T10:18:36;225.73;;;214.02;;
11039;SDS011;5573;49.592;8.662;2023-07-29T10:21:05;241.13;;;228.98;;
11039;SDS011;5573;49.592;8.662;2023-07-29T10:23:36;238.00;;;225.90;;
11039;SDS011;5573;49.592;8.662;2023-07-29T10:26:09;234.95;;;223.20;;
11039;SDS011;5573;49.592;8.662;2023-07-29T10:28:39;237.65;;;225.45;;
11039;SDS011;5573;49.592;8.662;2023-07-29T10:31:08;254.35;;;241.48;;
11039;SDS011;5573;49.592;8.662;2023-07-29T10:33:37;223.85;;;212.43;;
11039;SDS011;5573;49.592;8.662;2023-07-29T10:36:05;217.70;;;206.80;;
11039;SDS011;5573;49.592;8.662;2023-07-29T10:38:34;213.38;;;202.43;;
11039;SDS011;5573;49.592;8.662;2023-07-29T10:41:03;236.95;;;225.13;;
11039;SDS011;5573;49.592;8.662;2023-07-29T10:43:33;231.85;;;220.18;;
11039;SDS011;5573;49.592;8.662;2023-07-29T10:46:14;253.80;;;241.13;;
11039;SDS011;5573;49.592;8.662;2023-07-29T10:48:44;241.13;;;228.88;;
11039;SDS011;5573;49.592;8.662;2023-07-29T10:51:23;241.15;;;228.57;;
11039;SDS011;5573;49.592;8.662;2023-07-29T10:53:58;256.38;;;243.55;;
11039;SDS011;5573;49.592;8.662;2023-07-29T10:56:28;241.82;;;229.38;;
11039;SDS011;5573;49.592;8.662;2023-07-29T11:02:01;223.93;;;212.52;;
11039;SDS011;5573;49.592;8.662;2023-07-29T11:04:29;242.10;;;229.68;;
11039;SDS011;5573;49.592;8.662;2023-07-29T11:07:01;241.55;;;229.25;;
11039;SDS011;5573;49.592;8.662;2023-07-29T11:10:02;225.65;;;214.07;;
11039;SDS011;5573;49.592;8.662;2023-07-29T11:12:38;219.23;;;208.18;;
11039;SDS011;5573;49.592;8.662;2023-07-29T11:15:18;228.60;;;216.73;;
11039;SDS011;5573;49.592;8.662;2023-07-29T11:17:48;224.90;;;213.30;;
11039;SDS011;5573;49.592;8.662;2023-07-29T11:20:18;232.68;;;220.63;;
11039;SDS011;5573;49.592;8.662;2023-07-29T11:22:48;220.35;;;208.98;;
11039;SDS011;5573;49.592;8.662;2023-07-29T11:25:17;235.73;;;223.55;;
11039;SDS011;5573;49.592;8.662;2023-07-29T11:27:46;231.10;;;219.38;;
11039;SDS011;5573;49.592;8.662;2023-07-29T11:30:14;215.52;;;204.27;;
11039;SDS011;5573;49.592;8.662;2023-07-29T11:32:45;230.80;;;218.80;;
11039;SDS011;5573;49.592;8.662;2023-07-29T11:35:14;220.45;;;208.93;;
11039;SDS011;5573;49.592;8.662;2023-07-29T11:37:44;225.05;;;213.43;;
11039;SDS011;5573;49.592;8.662;2023-07-29T11:40:13;213.45;;;202.27;;
11039;SDS011;5573;49.592;8.662;2023-07-29T11:42:43;206.68;;;196.02;;
11039;SDS011;5573;49.592;8.662;2023-07-29T11:45:12;210.68;;;199.75;;
11039;SDS011;5573;49.592;8.662;2023-07-29T11:47:44;224.95;;;213.57;;
11039;SDS011;5573;49.592;8.662;2023-07-29T11:50:14;217.00;;;205.57;;
11039;SDS011;5573;49.592;8.662;2023-07-29T11:52:43;228.57;;;216.90;;
11039;SDS011;5573;49.592;8.662;2023-07-29T11:55:15;248.30;;;235.43;;
11039;SDS011;5573;49.592;8.662;2023-07-29T11:57:43;259.50;;;246.10;;
11039;SDS011;5573;49.592;8.662;2023-07-29T12:00:11;259.48;;;246.32;;
11039;SDS011;5573;49.592;8.662;2023-07-29T12:02:42;253.95;;;240.88;;
11039;SDS011;5573;49.592;8.662;2023-07-29T12:05:14;267.35;;;253.60;;
11039;SDS011;5573;49.592;8.662;2023-07-29T12:07:43;292.40;;;277.33;;
11039;SDS011;5573;49.592;8.662;2023-07-29T12:10:12;289.63;;;274.90;;
11039;SDS011;5573;49.592;8.662;2023-07-29T12:12:43;291.55;;;276.80;;
11039;SDS011;5573;49.592;8.662;2023-07-29T12:15:12;284.52;;;270.23;;
11039;SDS011;5573;49.592;8.662;2023-07-29T12:17:40;281.55;;;267.35;;
11039;SDS011;5573;49.592;8.662;2023-07-29T12:20:10;289.40;;;274.75;;
11039;SDS011;5573;49.592;8.662;2023-07-29T12:22:39;279.40;;;265.23;;
11039;SDS011;5573;49.592;8.662;2023-07-29T12:25:07;274.65;;;260.75;;
11039;SDS011;5573;49.592;8.662;2023-07-29T12:27:36;266.13;;;252.48;;
11039;SDS011;5573;49.592;8.662;2023-07-29T12:30:04;275.40;;;261.23;;
11039;SDS011;5573;49.592;8.662;2023-07-29T12:32:33;252.38;;;239.32;;
11039;SDS011;5573;49.592;8.662;2023-07-29T12:35:11;252.90;;;240.00;;
11039;SDS011;5573;49.592;8.662;2023-07-29T12:37:39;244.00;;;231.77;;
11039;SDS011;5573;49.592;8.662;2023-07-29T12:40:20;247.15;;;234.65;;
11039;SDS011;5573;49.592;8.662;2023-07-29T12:42:49;249.77;;;237.10;;
11039;SDS011;5573;49.592;8.662;2023-07-29T12:45:17;238.13;;;226.05;;
11039;SDS011;5573;49.592;8.662;2023-07-29T12:47:45;257.15;;;244.00;;
11039;SDS011;5573;49.592;8.662;2023-07-29T12:50:15;257.90;;;244.88;;
11039;SDS011;5573;49.592;8.662;2023-07-29T12:52:42;241.60;;;229.18;;
11039;SDS011;5573;49.592;8.662;2023-07-29T12:55:10;253.27;;;240.35;;
11039;SDS011;5573;49.592;8.662;2023-07-29T12:57:41;235.75;;;223.73;;
11039;SDS011;5573;49.592;8.662;2023-07-29T13:00:09;235.27;;;223.13;;
11039;SDS011;5573;49.592;8.662;2023-07-29T13:02:38;232.70;;;220.70;;
11039;SDS011;5573;49.592;8.662;2023-07-29T13:05:08;248.45;;;235.75;;
11039;SDS011;5573;49.592;8.662;2023-07-29T13:07:39;244.80;;;232.05;;
11039;SDS011;5573;49.592;8.662;2023-07-29T13:10:07;233.70;;;221.52;;
11039;SDS011;5573;49.592;8.662;2023-07-29T13:12:36;232.55;;;220.20;;
11039;SDS011;5573;49.592;8.662;2023-07-29T13:15:04;221.32;;;209.82;;
11039;SDS011;5573;49.592;8.662;2023-07-29T13:17:33;228.43;;;216.55;;
11039;SDS011;5573;49.592;8.662;2023-07-29T13:20:02;238.25;;;225.82;;
11039;SDS011;5573;49.592;8.662;2023-07-29T13:22:30;215.98;;;204.27;;
11039;SDS011;5573;49.592;8.662;2023-07-29T13:24:59;238.20;;;226.02;;
11039;SDS011;5573;49.592;8.662;2023-07-29T13:27:27;237.68;;;225.57;;
11039;SDS011;5573;49.592;8.662;2023-07-29T13:29:55;236.68;;;224.48;;
11039;SDS011;5573;49.592;8.662;2023-07-29T13:32:22;225.52;;;213.93;;
11039;SDS011;5573;49.592;8.662;2023-07-29T13:34:50;227.18;;;215.57;;
11039;SDS011;5573;49.592;8.662;2023-07-29T13:37:18;225.20;;;213.88;;
11039;SDS011;5573;49.592;8.662;2023-07-29T13:39:46;245.60;;;233.15;;
11039;SDS011;5573;49.592;8.662;2023-07-29T13:42:15;228.52;;;216.85;;
11039;SDS011;5573;49.592;8.662;2023-07-29T13:44:43;239.85;;;227.80;;
11039;SDS011;5573;49.592;8.662;2023-07-29T13:47:11;247.25;;;234.68;;
11039;SDS011;5573;49.592;8.662;2023-07-29T13:49:39;246.93;;;234.43;;
11039;SDS011;5573;49.592;8.662;2023-07-29T13:52:07;243.70;;;231.25;;
11039;SDS011;5573;49.592;8.662;2023-07-29T13:54:35;240.50;;;228.38;;
11039;SDS011;5573;49.592;8.662;2023-07-29T13:57:03;238.02;;;226.07;;
11039;SDS011;5573;49.592;8.662;2023-07-29T13:59:32;244.82;;;232.50;;
11039;SDS011;5573;49.592;8.662;2023-07-29T14:02:00;248.07;;;235.68;;
11039;SDS011;5573;49.592;8.662;2023-07-29T14:04:28;235.68;;;223.57;;
11039;SDS011;5573;49.592;8.662;2023-07-29T14:06:56;237.02;;;225.23;;
11039;SDS011;5573;49.592;8.662;2023-07-29T14:09:25;267.88;;;254.52;;
11039;SDS011;5573;49.592;8.662;2023-07-29T14:11:53;237.38;;;225.60;;
11039;SDS011;5573;49.592;8.662;2023-07-29T14:14:22;259.65;;;246.75;;
11039;SDS011;5573;49.592;8.662;2023-07-29T14:16:51;244.02;;;231.70;;
11039;SDS011;5573;49.592;8.662;2023-07-29T14:19:19;234.05;;;222.23;;
11039;SDS011;5573;49.592;8.662;2023-07-29T14:21:47;249.27;;;236.75;;